Time;durP1;ratioP1;P1;durP2;ratioP2;P2;SDS_P1;SDS_P2;PMS_P1;PMS_P2;Temp;Humidity;BMP_temperature;BMP_pressure;BME280_temperature;BME280_humidity;BME280_pressure;Samples;Min_cycle;Max_cycle;Signal;HPM_P1;HPM_P2
2024/01/29 00:02:00;;;;;;;1.85;1.20;;;8.40;99.90;;;;;;7340687;32;20253;-57
2024/01/29 00:06:02;;;;;;;2.47;1.50;;;8.40;99.90;;;;;;7342985;32;20103;-57
2024/01/29 00:10:05;;;;;;;3.10;1.30;;;8.40;99.90;;;;;;7332693;32;20472;-56
2024/01/29 00:14:07;;;;;;;3.20;1.23;;;8.40;99.90;;;;;;7341788;32;20724;-57
2024/01/29 00:18:08;;;;;;;2.40;1.30;;;8.40;99.90;;;;;;7343832;32;20556;-57
2024/01/29 00:22:10;;;;;;;3.67;1.58;;;8.30;99.90;;;;;;7343220;32;20270;-57
2024/01/29 00:26:12;;;;;;;3.65;1.30;;;8.30;99.90;;;;;;7342328;32;20178;-57
2024/01/29 00:30:14;;;;;;;2.37;1.30;;;8.40;99.90;;;;;;7345010;32;20124;-57
2024/01/29 00:34:16;;;;;;;2.95;1.48;;;8.40;99.90;;;;;;7347508;32;20130;-56
2024/01/29 00:38:18;;;;;;;2.37;1.33;;;8.40;99.90;;;;;;7347553;32;20122;-57
2024/01/29 00:42:20;;;;;;;2.33;1.25;;;8.40;99.90;;;;;;7345083;32;20328;-56
2024/01/29 00:46:22;;;;;;;2.95;1.12;;;8.40;99.90;;;;;;7343257;32;20393;-57
2024/01/29 00:50:24;;;;;;;3.00;1.60;;;8.40;99.90;;;;;;7345696;32;20497;-57
2024/01/29 00:54:25;;;;;;;2.33;1.30;;;8.30;99.90;;;;;;7337214;32;20099;-56
2024/01/29 00:58:27;;;;;;;3.50;1.52;;;8.30;99.90;;;;;;7341678;32;20207;-57
2024/01/29 01:02:29;;;;;;;3.25;1.92;;;8.30;99.90;;;;;;7341559;32;20232;-58
2024/01/29 01:06:30;;;;;;;2.92;1.40;;;8.20;99.90;;;;;;7339646;32;20119;-57
2024/01/29 01:10:32;;;;;;;2.47;1.30;;;8.20;99.90;;;;;;7341785;32;20240;-57
2024/01/29 01:14:34;;;;;;;3.37;1.55;;;8.20;99.90;;;;;;7341374;32;20245;-58
2024/01/29 01:18:36;;;;;;;3.65;1.60;;;8.20;99.90;;;;;;7345289;32;20145;-57
2024/01/29 01:22:38;;;;;;;3.70;1.52;;;8.20;99.90;;;;;;7335339;32;20104;-58
2024/01/29 01:26:40;;;;;;;1.58;1.33;;;8.20;99.90;;;;;;7346217;32;20199;-57
2024/01/29 01:30:41;;;;;;;2.45;1.45;;;8.20;99.90;;;;;;7337328;32;20741;-57
2024/01/29 01:34:43;;;;;;;2.75;1.50;;;8.20;99.90;;;;;;7339074;32;20162;-55
2024/01/29 01:38:45;;;;;;;3.33;1.30;;;8.20;99.90;;;;;;7345093;32;20235;-57
2024/01/29 01:42:48;;;;;;;3.55;1.60;;;8.10;99.90;;;;;;7342864;32;20127;-57
2024/01/29 01:46:50;;;;;;;2.50;1.20;;;8.10;99.90;;;;;;7342738;32;20218;-57
2024/01/29 01:50:52;;;;;;;2.92;1.58;;;8.10;99.90;;;;;;7335470;32;20838;-58
2024/01/29 01:54:54;;;;;;;1.98;1.25;;;8.10;99.90;;;;;;7340418;32;20176;-57
2024/01/29 01:58:59;;;;;;;2.67;1.27;;;8.10;99.90;;;;;;7341482;32;20622;-58
2024/01/29 02:03:01;;;;;;;4.40;1.30;;;8.10;99.90;;;;;;7342450;32;20103;-57
2024/01/29 02:07:03;;;;;;;3.65;1.55;;;8.10;99.90;;;;;;7344064;32;20257;-57
2024/01/29 02:11:05;;;;;;;1.80;1.30;;;8.00;99.90;;;;;;7344090;32;20107;-57
2024/01/29 02:15:08;;;;;;;3.45;1.70;;;8.00;99.90;;;;;;7338738;32;20630;-57
2024/01/29 02:19:15;;;;;;;3.40;1.40;;;7.90;99.90;;;;;;7341610;32;20096;-57
2024/01/29 02:23:17;;;;;;;2.87;1.30;;;8.00;99.90;;;;;;7334863;32;20605;-58
2024/01/29 02:27:19;;;;;;;3.50;1.67;;;8.00;99.90;;;;;;7341668;32;20096;-57
2024/01/29 02:31:21;;;;;;;3.62;1.40;;;8.00;99.90;;;;;;7338177;32;20127;-57
2024/01/29 02:35:23;;;;;;;3.65;1.42;;;7.90;99.90;;;;;;7344953;32;20278;-57
2024/01/29 02:39:25;;;;;;;2.30;1.40;;;8.00;99.90;;;;;;7337297;32;20169;-58
2024/01/29 02:43:26;;;;;;;4.40;1.40;;;8.20;99.90;;;;;;7335226;32;20123;-57
2024/01/29 02:47:28;;;;;;;3.40;1.40;;;8.10;99.90;;;;;;7339885;32;20122;-58
2024/01/29 02:51:30;;;;;;;2.28;1.17;;;8.20;99.90;;;;;;7335520;32;20096;-57
2024/01/29 02:55:32;;;;;;;2.42;1.25;;;8.10;99.90;;;;;;7336960;32;20103;-57
2024/01/29 02:59:33;;;;;;;3.70;1.45;;;8.00;99.90;;;;;;7341224;32;20230;-57
2024/01/29 03:03:35;;;;;;;2.70;1.40;;;8.00;99.90;;;;;;7336831;32;20163;-57
2024/01/29 03:07:37;;;;;;;2.45;1.23;;;8.00;99.90;;;;;;7339784;32;20466;-58
2024/01/29 03:11:39;;;;;;;3.65;1.42;;;8.10;99.90;;;;;;7336599;32;20145;-57
2024/01/29 03:15:45;;;;;;;3.60;1.50;;;8.20;99.90;;;;;;7336479;32;20783;-57
2024/01/29 03:19:53;;;;;;;5.47;1.80;;;8.20;99.90;;;;;;7336011;32;20325;-57
2024/01/29 03:23:56;;;;;;;2.85;1.55;;;8.20;99.90;;;;;;7334705;32;20123;-57
2024/01/29 03:27:57;;;;;;;3.90;1.80;;;8.10;99.90;;;;;;7337083;32;20691;-56
2024/01/29 03:31:59;;;;;;;4.62;1.60;;;8.00;99.90;;;;;;7344266;32;20164;-58
2024/01/29 03:36:05;;;;;;;2.22;1.37;;;7.90;99.90;;;;;;7349044;32;20111;-57
2024/01/29 03:40:08;;;;;;;2.47;1.60;;;7.90;99.90;;;;;;7344467;32;20146;-57
2024/01/29 03:44:10;;;;;;;3.47;1.70;;;7.80;99.90;;;;;;7345801;32;20285;-58
2024/01/29 03:48:11;;;;;;;4.47;1.65;;;7.70;99.90;;;;;;7344454;32;20179;-58
2024/01/29 03:52:13;;;;;;;3.95;1.60;;;7.60;99.90;;;;;;7345422;32;20229;-55
2024/01/29 03:56:15;;;;;;;5.45;1.85;;;7.60;99.90;;;;;;7342263;32;20269;-58
2024/01/29 04:00:18;;;;;;;3.87;1.60;;;7.60;99.90;;;;;;7339854;32;20148;-57
2024/01/29 04:04:20;;;;;;;6.07;1.67;;;7.70;99.90;;;;;;7346914;32;20206;-57
2024/01/29 04:08:22;;;;;;;3.08;1.62;;;7.80;99.90;;;;;;7340656;32;20138;-57
2024/01/29 04:12:24;;;;;;;2.78;1.48;;;7.80;99.90;;;;;;7341296;32;20193;-57
2024/01/29 04:16:26;;;;;;;3.35;1.67;;;7.70;99.90;;;;;;7342532;32;20130;-57
2024/01/29 04:20:27;;;;;;;3.58;1.62;;;7.60;99.90;;;;;;7346164;32;20329;-57
2024/01/29 04:24:29;;;;;;;5.00;1.90;;;7.60;99.90;;;;;;7345171;32;20125;-58
2024/01/29 04:28:31;;;;;;;3.00;1.58;;;7.50;99.90;;;;;;7345698;32;20095;-57
2024/01/29 04:32:32;;;;;;;3.70;1.60;;;7.50;99.90;;;;;;7343502;32;20119;-57
2024/01/29 04:36:34;;;;;;;4.15;1.70;;;7.50;99.90;;;;;;7348004;32;21001;-57
2024/01/29 04:40:39;;;;;;;3.22;1.58;;;7.40;99.90;;;;;;7340090;32;20115;-57
2024/01/29 04:44:41;;;;;;;3.08;1.60;;;7.40;99.90;;;;;;7340723;32;20160;-57
2024/01/29 04:48:42;;;;;;;3.75;1.48;;;7.30;99.90;;;;;;7345493;32;20228;-57
2024/01/29 04:52:44;;;;;;;3.78;1.90;;;7.40;99.90;;;;;;7340990;32;20186;-58
2024/01/29 04:56:46;;;;;;;2.75;1.52;;;7.30;99.90;;;;;;7339953;32;20119;-58
2024/01/29 05:00:48;;;;;;;3.67;1.77;;;7.30;99.90;;;;;;7334812;32;20107;-58
2024/01/29 05:04:50;;;;;;;4.25;1.87;;;7.20;99.90;;;;;;7344738;32;20252;-58
2024/01/29 05:08:52;;;;;;;4.03;1.62;;;7.30;99.90;;;;;;7339465;32;20242;-57
2024/01/29 05:12:54;;;;;;;3.20;1.80;;;7.40;99.90;;;;;;7341912;32;20167;-57
2024/01/29 05:16:56;;;;;;;3.40;1.80;;;7.30;99.90;;;;;;7341474;32;20416;-57
2024/01/29 05:20:58;;;;;;;3.53;1.80;;;7.20;99.90;;;;;;7341556;32;20155;-57
2024/01/29 05:24:59;;;;;;;2.92;1.80;;;7.10;99.90;;;;;;7338557;32;20285;-56
2024/01/29 05:29:01;;;;;;;3.75;1.73;;;7.10;99.90;;;;;;7336492;32;20107;-57
2024/01/29 05:33:03;;;;;;;4.22;2.35;;;7.10;99.90;;;;;;7341776;32;20878;-57
2024/01/29 05:37:25;;;;;;;4.18;2.15;;;6.90;99.90;;;;;;7339567;32;20139;-56
2024/01/29 05:41:26;;;;;;;4.32;2.20;;;6.80;99.90;;;;;;7334903;32;20181;-58
2024/01/29 05:45:30;;;;;;;3.85;2.08;;;6.80;99.90;;;;;;7343314;32;20092;-57
2024/01/29 05:49:31;;;;;;;9.27;2.53;;;6.70;99.90;;;;;;7343883;32;20099;-56
2024/01/29 05:53:33;;;;;;;6.15;2.05;;;6.80;99.90;;;;;;7337876;32;20122;-57
2024/01/29 05:57:36;;;;;;;4.53;2.40;;;6.80;99.90;;;;;;7341665;32;20209;-57
2024/01/29 06:01:37;;;;;;;3.92;1.80;;;6.60;99.90;;;;;;7342275;32;20139;-56
2024/01/29 06:05:39;;;;;;;4.45;2.30;;;6.60;99.90;;;;;;7339608;32;20201;-58
2024/01/29 06:09:41;;;;;;;3.85;2.30;;;6.50;99.90;;;;;;7331086;32;20225;-57
2024/01/29 06:13:43;;;;;;;4.18;2.28;;;6.40;99.90;;;;;;7341011;32;20165;-57
2024/01/29 06:17:45;;;;;;;4.32;2.15;;;6.40;99.90;;;;;;7351058;32;20262;-58
2024/01/29 06:21:48;;;;;;;3.55;1.83;;;6.50;99.90;;;;;;7340125;32;20236;-56
2024/01/29 06:25:50;;;;;;;4.50;2.12;;;6.40;99.90;;;;;;7343223;32;20155;-58
2024/01/29 06:29:51;;;;;;;5.10;2.08;;;6.50;99.90;;;;;;7350233;32;20551;-57
2024/01/29 06:33:54;;;;;;;4.47;2.12;;;6.40;99.90;;;;;;7344037;32;20095;-58
2024/01/29 06:38:01;;;;;;;3.55;2.00;;;6.40;99.90;;;;;;7342704;32;20103;-57
2024/01/29 06:42:03;;;;;;;4.78;2.12;;;6.30;99.90;;;;;;7345147;32;20131;-56
2024/01/29 06:46:05;;;;;;;5.18;2.22;;;6.40;99.90;;;;;;7346196;32;20178;-57
2024/01/29 06:50:07;;;;;;;7.37;2.17;;;6.30;99.90;;;;;;7338619;32;20198;-58
2024/01/29 06:54:09;;;;;;;4.93;2.22;;;6.50;99.90;;;;;;7344649;32;20117;-57
2024/01/29 06:58:11;;;;;;;6.53;2.62;;;6.50;99.90;;;;;;7344107;32;20203;-58
2024/01/29 07:02:13;;;;;;;4.85;2.28;;;6.40;99.90;;;;;;7346533;32;20156;-57
2024/01/29 07:06:14;;;;;;;3.80;2.35;;;6.40;99.90;;;;;;7343151;32;20122;-57
2024/01/29 07:10:16;;;;;;;4.07;2.30;;;6.50;99.90;;;;;;7341092;32;20175;-57
2024/01/29 07:14:18;;;;;;;3.55;2.15;;;6.50;99.90;;;;;;7344064;32;20173;-57
2024/01/29 07:18:22;;;;;;;2.85;1.95;;;6.50;99.90;;;;;;7348353;32;20157;-58
2024/01/29 07:22:24;;;;;;;4.60;2.30;;;6.40;99.90;;;;;;7344817;32;20094;-57
2024/01/29 07:26:26;;;;;;;5.32;2.25;;;6.40;99.90;;;;;;7337774;32;20346;-59
2024/01/29 07:30:27;;;;;;;4.62;2.58;;;6.40;99.90;;;;;;7347082;32;20187;-59
2024/01/29 07:34:29;;;;;;;4.62;2.45;;;6.40;99.90;;;;;;7343490;32;20253;-58
2024/01/29 07:38:31;;;;;;;4.55;2.30;;;6.30;99.90;;;;;;7340216;32;20572;-58
2024/01/29 07:42:33;;;;;;;3.92;2.75;;;6.20;99.90;;;;;;7340213;32;20126;-58
2024/01/29 07:46:35;;;;;;;4.32;2.40;;;6.20;99.90;;;;;;7339040;32;20139;-58
2024/01/29 07:50:36;;;;;;;3.83;2.45;;;6.20;99.90;;;;;;7343190;32;20578;-61
2024/01/29 07:54:38;;;;;;;6.07;2.40;;;6.20;99.90;;;;;;7334581;32;20107;-59
2024/01/29 07:58:40;;;;;;;7.18;3.05;;;6.30;99.90;;;;;;7345941;32;20268;-60
2024/01/29 08:02:42;;;;;;;4.80;2.50;;;6.30;99.90;;;;;;7347140;32;20116;-59
2024/01/29 08:06:43;;;;;;;5.85;2.80;;;6.20;99.90;;;;;;7337317;32;20096;-59
2024/01/29 08:10:46;;;;;;;4.40;2.83;;;6.20;99.90;;;;;;7345103;32;20091;-58
2024/01/29 08:14:49;;;;;;;4.15;2.35;;;6.30;99.90;;;;;;7343850;32;20557;-60
2024/01/29 08:18:51;;;;;;;6.62;2.80;;;6.40;99.90;;;;;;7342373;32;20153;-61
2024/01/29 08:22:53;;;;;;;5.40;2.85;;;6.50;99.90;;;;;;7345804;32;20257;-59
2024/01/29 08:26:55;;;;;;;6.12;3.03;;;6.60;99.90;;;;;;7347640;32;20723;-59
2024/01/29 08:30:58;;;;;;;7.15;3.45;;;6.60;99.90;;;;;;7345132;32;20311;-59
2024/01/29 08:35:00;;;;;;;6.32;3.03;;;6.80;99.90;;;;;;7353747;32;20504;-59
2024/01/29 08:39:02;;;;;;;5.62;2.80;;;6.90;99.90;;;;;;7345047;32;20195;-59
2024/01/29 08:43:04;;;;;;;7.00;3.15;;;7.10;99.90;;;;;;7348420;32;20248;-59
2024/01/29 08:47:06;;;;;;;6.60;3.45;;;7.20;99.90;;;;;;7343674;32;20192;-59
2024/01/29 08:51:08;;;;;;;6.45;3.33;;;7.30;99.90;;;;;;7339403;32;20130;-60
2024/01/29 08:55:09;;;;;;;7.60;2.90;;;7.40;99.90;;;;;;7334592;32;20205;-58
2024/01/29 08:59:12;;;;;;;5.72;3.28;;;7.50;99.90;;;;;;7341905;32;20242;-60
2024/01/29 09:03:14;;;;;;;4.75;2.87;;;7.60;99.90;;;;;;7347650;32;20713;-59
2024/01/29 09:07:17;;;;;;;6.90;3.55;;;7.70;99.90;;;;;;7347523;32;20531;-59
2024/01/29 09:11:19;;;;;;;5.60;3.17;;;7.70;99.90;;;;;;7346592;32;20218;-60
2024/01/29 09:15:21;;;;;;;5.78;3.30;;;7.70;99.90;;;;;;7340454;32;20972;-59
2024/01/29 09:19:23;;;;;;;6.62;3.10;;;7.80;99.90;;;;;;7349948;32;20126;-60
2024/01/29 09:23:25;;;;;;;5.43;2.97;;;7.80;99.90;;;;;;7340495;32;20149;-60
2024/01/29 09:27:29;;;;;;;4.90;3.12;;;7.80;99.90;;;;;;7348126;32;20611;-60
2024/01/29 09:31:32;;;;;;;7.68;3.83;;;7.80;99.90;;;;;;7349248;32;20133;-58
2024/01/29 09:35:34;;;;;;;8.93;3.10;;;7.90;99.90;;;;;;7344467;32;20103;-60
2024/01/29 09:39:36;;;;;;;6.28;3.62;;;7.90;99.90;;;;;;7343530;32;20173;-56
2024/01/29 09:43:39;;;;;;;6.37;3.22;;;8.00;99.90;;;;;;7336479;32;20119;-57
2024/01/29 09:47:42;;;;;;;5.28;3.42;;;8.10;99.90;;;;;;7346713;32;20217;-59
2024/01/29 09:51:45;;;;;;;6.30;3.45;;;8.10;99.90;;;;;;7338174;32;20130;-57
2024/01/29 09:55:47;;;;;;;6.03;3.53;;;8.00;99.90;;;;;;7339382;32;20119;-58
2024/01/29 09:59:49;;;;;;;11.60;3.40;;;8.20;99.90;;;;;;7349251;32;20115;-59
2024/01/29 10:03:50;;;;;;;6.07;3.75;;;8.30;99.90;;;;;;7348166;32;20183;-58
2024/01/29 10:07:55;;;;;;;5.97;3.25;;;8.50;99.90;;;;;;7333084;32;20241;-57
2024/01/29 10:11:58;;;;;;;7.85;3.47;;;8.60;99.90;;;;;;7338668;32;20103;-58
2024/01/29 10:16:00;;;;;;;7.07;3.80;;;8.60;99.90;;;;;;7343891;32;20172;-58
2024/01/29 10:20:02;;;;;;;7.00;3.05;;;8.80;99.90;;;;;;7345688;32;20513;-58
2024/01/29 10:24:11;;;;;;;4.78;3.20;;;8.80;99.90;;;;;;7344605;32;20092;-57
2024/01/29 10:28:13;;;;;;;4.50;3.30;;;8.90;99.90;;;;;;7348758;32;20441;-58
2024/01/29 10:32:15;;;;;;;4.95;3.35;;;8.90;99.90;;;;;;7347807;32;20195;-55
2024/01/29 10:36:17;;;;;;;6.53;3.65;;;9.00;99.90;;;;;;7339720;32;20588;-61
2024/01/29 10:40:21;;;;;;;4.80;3.30;;;9.10;99.90;;;;;;7340351;32;20159;-57
2024/01/29 10:44:26;;;;;;;7.50;3.65;;;9.10;99.90;;;;;;7342951;32;20662;-56
2024/01/29 10:48:29;;;;;;;5.93;3.12;;;9.40;99.90;;;;;;7349125;32;20178;-57
2024/01/29 10:52:31;;;;;;;5.28;3.22;;;9.50;99.90;;;;;;7348100;32;20469;-60
2024/01/29 10:56:35;;;;;;;6.10;3.78;;;9.60;99.90;;;;;;7346372;32;20644;-60
2024/01/29 11:00:38;;;;;;;5.62;3.42;;;9.80;99.90;;;;;;7341583;32;20219;-58
2024/01/29 11:04:40;;;;;;;8.40;4.05;;;9.90;99.90;;;;;;7347206;32;20103;-58
2024/01/29 11:08:47;;;;;;;7.12;3.58;;;10.00;99.90;;;;;;7336365;32;20107;-58
2024/01/29 11:12:52;;;;;;;5.62;3.50;;;10.20;99.90;;;;;;7347782;32;20107;-59
2024/01/29 11:16:54;;;;;;;7.53;4.10;;;10.40;99.90;;;;;;7344127;32;20103;-58
2024/01/29 11:20:56;;;;;;;5.57;3.45;;;10.40;99.90;;;;;;7344414;32;20107;-58
2024/01/29 11:24:58;;;;;;;7.60;3.50;;;10.40;99.90;;;;;;7344184;32;20096;-59
2024/01/29 11:29:03;;;;;;;5.95;3.30;;;10.60;99.90;;;;;;7331028;32;20624;-59
2024/01/29 11:33:17;;;;;;;5.90;3.00;;;10.70;99.90;;;;;;7344392;32;20213;-58
2024/01/29 11:37:28;;;;;;;5.93;3.40;;;10.80;99.90;;;;;;7345057;32;20214;-58
2024/01/29 11:41:31;;;;;;;7.78;3.83;;;10.90;99.90;;;;;;7342537;32;20404;-58
2024/01/29 11:45:37;;;;;;;8.77;3.80;;;11.00;99.90;;;;;;7342005;32;20212;-58
2024/01/29 11:49:39;;;;;;;6.93;3.47;;;10.90;99.90;;;;;;7337492;32;20118;-60
2024/01/29 11:53:49;;;;;;;7.18;3.90;;;11.30;99.90;;;;;;7348921;32;20099;-58
2024/01/29 11:57:53;;;;;;;6.28;3.75;;;11.30;99.90;;;;;;7345465;32;20123;-56
2024/01/29 12:01:54;;;;;;;7.72;3.30;;;11.40;99.90;;;;;;7341227;32;20207;-58
2024/01/29 12:05:56;;;;;;;6.10;3.40;;;11.50;99.90;;;;;;7343955;32;20096;-58
2024/01/29 12:09:58;;;;;;;6.55;3.85;;;11.40;99.90;;;;;;7348630;32;20258;-59
2024/01/29 12:14:00;;;;;;;4.75;2.92;;;11.40;99.90;;;;;;7349584;32;20107;-58
2024/01/29 12:18:09;;;;;;;7.62;3.25;;;11.50;99.90;;;;;;7347212;32;20189;-58
2024/01/29 12:22:12;;;;;;;5.68;3.20;;;11.60;99.90;;;;;;7341643;32;20540;-60
2024/01/29 12:26:25;;;;;;;6.10;3.42;;;11.70;99.90;;;;;;7349161;32;20206;-59
2024/01/29 12:30:26;;;;;;;5.10;3.40;;;11.70;99.90;;;;;;7343478;32;20127;-59
2024/01/29 12:34:29;;;;;;;5.97;3.33;;;11.80;99.90;;;;;;7347211;32;20607;-59
2024/01/29 12:38:32;;;;;;;6.47;3.35;;;11.90;99.90;;;;;;7342374;32;20525;-57
2024/01/29 12:42:33;;;;;;;8.00;3.58;;;11.90;99.90;;;;;;7348442;32;20130;-58
2024/01/29 12:46:35;;;;;;;6.00;3.90;;;11.90;99.90;;;;;;7349370;32;20476;-59
2024/01/29 12:50:42;;;;;;;6.62;3.83;;;12.00;99.90;;;;;;7348643;32;20167;-59
2024/01/29 12:54:47;;;;;;;7.03;3.45;;;12.10;99.90;;;;;;7336965;32;20157;-59
2024/01/29 12:58:48;;;;;;;6.68;3.40;;;12.10;99.90;;;;;;7340609;32;20132;-60
2024/01/29 13:02:51;;;;;;;7.85;3.28;;;12.20;99.90;;;;;;7351959;32;20127;-60
2024/01/29 13:06:53;;;;;;;6.45;3.42;;;12.30;99.90;;;;;;7348944;32;20127;-59
2024/01/29 13:10:54;;;;;;;7.25;3.60;;;12.50;99.90;;;;;;7344596;32;20145;-58
2024/01/29 13:14:57;;;;;;;7.45;3.50;;;12.60;99.90;;;;;;7341359;32;20251;-59
2024/01/29 13:18:59;;;;;;;6.95;3.40;;;12.60;99.90;;;;;;7336384;32;20112;-59
2024/01/29 13:23:01;;;;;;;6.78;3.75;;;12.70;99.90;;;;;;7342727;32;20527;-58
2024/01/29 13:27:03;;;;;;;6.53;3.87;;;12.60;99.90;;;;;;7339153;32;20505;-58
2024/01/29 13:31:05;;;;;;;8.90;3.28;;;12.70;99.90;;;;;;7336339;32;20191;-58
2024/01/29 13:35:07;;;;;;;6.93;3.35;;;12.80;99.90;;;;;;7345038;32;20190;-59
2024/01/29 13:39:09;;;;;;;6.15;3.22;;;12.90;99.90;;;;;;7342239;32;20706;-59
2024/01/29 13:43:11;;;;;;;7.62;3.55;;;13.00;99.90;;;;;;7345836;32;20526;-59
2024/01/29 13:47:13;;;;;;;8.13;3.78;;;13.10;99.90;;;;;;7344530;32;20139;-58
2024/01/29 13:51:22;;;;;;;5.43;3.62;;;13.10;99.90;;;;;;7341838;32;20199;-59
2024/01/29 13:55:24;;;;;;;7.20;3.80;;;13.10;99.90;;;;;;7340989;32;20206;-59
2024/01/29 13:59:25;;;;;;;8.05;3.62;;;13.00;99.90;;;;;;7348924;32;20125;-58
2024/01/29 14:03:27;;;;;;;7.45;3.87;;;13.10;99.90;;;;;;7339002;32;20097;-58
2024/01/29 14:07:29;;;;;;;7.57;3.58;;;13.00;99.90;;;;;;7342476;32;20284;-60
2024/01/29 14:11:31;;;;;;;6.55;3.60;;;13.00;99.90;;;;;;7345419;32;20203;-57
2024/01/29 14:15:33;;;;;;;5.72;3.40;;;13.00;99.90;;;;;;7341529;32;20107;-58
2024/01/29 14:19:35;;;;;;;9.18;4.10;;;13.00;99.90;;;;;;7345375;32;20218;-58
2024/01/29 14:23:37;;;;;;;5.35;3.40;;;12.90;99.90;;;;;;7344607;32;20979;-60
2024/01/29 14:27:41;;;;;;;8.55;3.50;;;12.80;99.90;;;;;;7338785;32;20245;-58
2024/01/29 14:31:43;;;;;;;5.60;2.90;;;12.80;99.90;;;;;;7343722;32;20134;-58
2024/01/29 14:35:45;;;;;;;7.80;3.30;;;12.80;99.90;;;;;;7344803;32;20293;-58
2024/01/29 14:39:47;;;;;;;4.32;2.72;;;12.70;99.90;;;;;;7348139;32;20520;-59
2024/01/29 14:43:48;;;;;;;8.02;3.53;;;12.60;99.90;;;;;;7347094;32;20122;-59
2024/01/29 14:47:50;;;;;;;6.62;2.83;;;12.60;99.90;;;;;;7345788;32;20152;-59
2024/01/29 14:51:52;;;;;;;10.05;3.50;;;12.50;99.90;;;;;;7344056;32;20430;-58
2024/01/29 14:55:54;;;;;;;4.87;2.83;;;12.30;99.90;;;;;;7347957;32;20119;-59
2024/01/29 14:59:56;;;;;;;6.40;3.30;;;12.30;99.90;;;;;;7346225;32;20099;-63
2024/01/29 15:03:58;;;;;;;6.50;3.15;;;12.10;99.90;;;;;;7345883;32;20127;-64
2024/01/29 15:08:00;;;;;;;5.68;3.15;;;12.10;99.90;;;;;;7343678;32;20938;-59
2024/01/29 15:12:02;;;;;;;6.32;3.20;;;12.10;99.90;;;;;;7344203;32;20224;-59
2024/01/29 15:16:04;;;;;;;5.00;3.03;;;11.90;99.90;;;;;;7348448;32;20156;-59
2024/01/29 15:20:08;;;;;;;5.85;3.60;;;11.80;99.90;;;;;;7342467;32;20104;-60
2024/01/29 15:24:10;;;;;;;7.62;3.78;;;11.70;99.90;;;;;;7338847;32;20186;-60
2024/01/29 15:28:12;;;;;;;5.57;3.30;;;11.60;99.90;;;;;;7349516;32;20226;-60
2024/01/29 15:32:14;;;;;;;5.35;3.10;;;11.60;99.90;;;;;;7348777;32;20123;-60
2024/01/29 15:36:16;;;;;;;8.65;3.40;;;11.40;99.90;;;;;;7340645;32;20123;-58
2024/01/29 15:40:18;;;;;;;5.62;3.03;;;11.20;99.90;;;;;;7338335;32;20103;-58
2024/01/29 15:44:20;;;;;;;6.18;3.10;;;11.20;99.90;;;;;;7336852;32;20223;-59
2024/01/29 15:48:22;;;;;;;5.95;3.12;;;11.00;99.90;;;;;;7347665;32;20087;-59
2024/01/29 15:52:24;;;;;;;5.82;3.83;;;10.90;99.90;;;;;;7345212;32;20171;-59
2024/01/29 15:56:26;;;;;;;8.57;3.83;;;10.90;99.90;;;;;;7342092;32;20160;-58
2024/01/29 16:00:33;;;;;;;8.35;3.87;;;10.80;99.90;;;;;;7347884;32;20209;-58
2024/01/29 16:04:38;;;;;;;5.90;3.58;;;10.60;99.90;;;;;;7339128;32;20126;-58
2024/01/29 16:08:43;;;;;;;6.70;3.30;;;10.50;99.90;;;;;;7345181;32;20179;-58
2024/01/29 16:12:45;;;;;;;6.15;3.80;;;10.50;99.90;;;;;;7338800;32;20099;-59
2024/01/29 16:16:47;;;;;;;6.18;3.80;;;10.50;99.90;;;;;;7346930;32;20622;-60
2024/01/29 16:20:48;;;;;;;7.25;3.60;;;10.30;99.90;;;;;;7346580;32;20282;-58
2024/01/29 16:24:51;;;;;;;5.60;3.42;;;10.20;99.90;;;;;;7342437;32;20238;-60
2024/01/29 16:28:53;;;;;;;7.10;3.60;;;10.00;99.90;;;;;;7348376;32;20442;-58
2024/01/29 16:32:54;;;;;;;6.78;3.58;;;10.00;99.90;;;;;;7341551;32;20154;-58
2024/01/29 16:36:56;;;;;;;6.22;4.03;;;10.00;99.90;;;;;;7343488;32;20166;-57
2024/01/29 16:40:58;;;;;;;15.98;9.13;;;10.00;99.90;;;;;;7342263;32;20119;-58
2024/01/29 16:45:00;;;;;;;9.82;6.28;;;9.90;99.90;;;;;;7343929;32;20100;-58
2024/01/29 16:49:02;;;;;;;9.82;5.03;;;9.70;99.90;;;;;;7347391;32;20219;-57
2024/01/29 16:53:04;;;;;;;6.40;3.90;;;9.70;99.90;;;;;;7338278;32;20502;-58
2024/01/29 16:57:06;;;;;;;7.57;4.07;;;9.60;99.90;;;;;;7340189;32;20103;-57
2024/01/29 17:01:07;;;;;;;5.65;4.28;;;9.70;99.90;;;;;;7345912;32;20495;-58
2024/01/29 17:05:10;;;;;;;5.90;3.87;;;9.60;99.90;;;;;;7332804;32;20103;-57
2024/01/29 17:09:13;;;;;;;9.75;3.97;;;9.60;99.90;;;;;;7345406;32;20223;-58
2024/01/29 17:13:15;;;;;;;6.82;4.10;;;9.60;99.90;;;;;;7342628;32;20722;-56
2024/01/29 17:17:17;;;;;;;6.40;3.83;;;9.60;99.90;;;;;;7349436;32;20138;-58
2024/01/29 17:21:18;;;;;;;5.82;3.85;;;9.60;99.90;;;;;;7343223;32;20125;-59
2024/01/29 17:25:20;;;;;;;7.03;4.00;;;9.60;99.90;;;;;;7342033;32;20355;-57
2024/01/29 17:29:22;;;;;;;6.20;4.30;;;9.60;99.90;;;;;;7347013;32;20131;-57
2024/01/29 17:33:27;;;;;;;8.02;4.10;;;9.60;99.90;;;;;;7342031;32;20130;-56
2024/01/29 17:37:32;;;;;;;9.80;5.18;;;9.90;99.90;;;;;;7345036;32;20122;-57
2024/01/29 17:41:33;;;;;;;7.57;4.18;;;9.90;99.90;;;;;;7335784;32;20127;-58
2024/01/29 17:45:36;;;;;;;7.37;4.37;;;10.00;99.90;;;;;;7344798;32;20148;-57
2024/01/29 17:49:39;;;;;;;6.68;4.18;;;10.00;99.90;;;;;;7336181;32;20100;-56
2024/01/29 17:53:43;;;;;;;5.43;3.97;;;9.90;99.90;;;;;;7342070;32;20866;-56
2024/01/29 17:57:44;;;;;;;5.53;4.10;;;9.90;99.90;;;;;;7337807;32;20454;-57
2024/01/29 18:01:46;;;;;;;5.72;4.22;;;9.80;99.90;;;;;;7335532;32;20545;-57
2024/01/29 18:05:48;;;;;;;6.78;4.47;;;9.90;99.90;;;;;;7342181;32;20104;-58
2024/01/29 18:09:50;;;;;;;6.72;4.47;;;9.80;99.90;;;;;;7347616;32;20639;-58
2024/01/29 18:13:52;;;;;;;7.07;4.20;;;9.90;99.90;;;;;;7349956;32;20645;-57
2024/01/29 18:17:53;;;;;;;6.80;4.45;;;9.80;99.90;;;;;;7346718;32;20103;-57
2024/01/29 18:21:55;;;;;;;8.75;4.45;;;9.80;99.90;;;;;;7344387;32;20478;-57
2024/01/29 18:25:57;;;;;;;8.52;4.62;;;9.80;99.90;;;;;;7339458;32;20683;-57
2024/01/29 18:29:59;;;;;;;10.13;4.60;;;9.80;99.90;;;;;;7345154;32;20226;-58
2024/01/29 18:34:01;;;;;;;7.22;4.70;;;9.80;99.90;;;;;;7333620;32;20118;-57
2024/01/29 18:38:03;;;;;;;8.90;4.60;;;9.70;99.90;;;;;;7340936;32;20096;-57
2024/01/29 18:42:05;;;;;;;7.47;5.00;;;9.80;99.90;;;;;;7342146;32;20123;-57
2024/01/29 18:46:07;;;;;;;9.38;4.43;;;9.80;99.90;;;;;;7339533;32;20112;-57
2024/01/29 18:50:09;;;;;;;8.70;5.05;;;9.80;99.90;;;;;;7345072;32;20163;-58
2024/01/29 18:54:11;;;;;;;9.38;4.72;;;9.70;99.90;;;;;;7339023;32;20140;-57
2024/01/29 18:58:13;;;;;;;10.02;4.85;;;9.80;99.90;;;;;;7334069;32;20180;-60
2024/01/29 19:02:15;;;;;;;8.48;4.90;;;9.70;99.90;;;;;;7335692;32;20131;-57
2024/01/29 19:06:18;;;;;;;9.35;5.03;;;9.70;99.90;;;;;;7342853;32;20126;-59
2024/01/29 19:10:20;;;;;;;9.57;5.50;;;9.60;99.90;;;;;;7345403;32;20118;-58
2024/01/29 19:14:23;;;;;;;9.07;4.95;;;9.70;99.90;;;;;;7346465;32;20103;-58
2024/01/29 19:18:25;;;;;;;8.20;5.20;;;9.70;99.90;;;;;;7343343;32;20159;-57
2024/01/29 19:22:26;;;;;;;9.40;5.05;;;9.70;99.90;;;;;;7343463;32;20156;-57
2024/01/29 19:26:28;;;;;;;7.55;4.95;;;9.70;99.90;;;;;;7343397;32;20182;-58
2024/01/29 19:30:30;;;;;;;8.23;5.20;;;9.60;99.90;;;;;;7344430;32;20259;-59
2024/01/29 19:34:35;;;;;;;8.05;5.50;;;9.60;99.90;;;;;;7343950;32;20138;-58
2024/01/29 19:38:37;;;;;;;7.07;5.12;;;9.50;99.90;;;;;;7332748;32;20124;-58
2024/01/29 19:42:40;;;;;;;11.43;6.05;;;9.50;99.90;;;;;;7338514;32;20202;-61
2024/01/29 19:46:43;;;;;;;10.60;5.82;;;9.50;99.90;;;;;;7348470;32;20208;-57
2024/01/29 19:50:45;;;;;;;9.35;5.90;;;9.50;99.90;;;;;;7344499;32;20252;-57
2024/01/29 19:54:46;;;;;;;9.32;4.93;;;9.50;99.90;;;;;;7348311;32;20145;-57
2024/01/29 19:58:48;;;;;;;10.02;5.68;;;9.40;99.90;;;;;;7344327;32;20404;-57
2024/01/29 20:02:51;;;;;;;8.75;5.10;;;9.40;99.90;;;;;;7341279;32;20188;-57
2024/01/29 20:06:53;;;;;;;7.72;5.00;;;9.30;99.90;;;;;;7347042;32;20529;-59
2024/01/29 20:10:54;;;;;;;9.40;5.82;;;9.40;99.90;;;;;;7339517;32;20134;-57
2024/01/29 20:14:56;;;;;;;11.52;5.55;;;9.30;99.90;;;;;;7340839;32;20108;-57
2024/01/29 20:18:59;;;;;;;9.88;5.62;;;9.30;99.90;;;;;;7350592;32;20133;-57
2024/01/29 20:23:15;;;;;;;9.48;4.95;;;9.20;99.90;;;;;;7344774;32;20174;-57
2024/01/29 20:27:16;;;;;;;7.90;5.28;;;9.30;99.90;;;;;;7350271;32;20809;-57
2024/01/29 20:31:26;;;;;;;8.18;5.40;;;9.40;99.90;;;;;;7348061;32;20116;-57
2024/01/29 20:35:28;;;;;;;9.05;5.68;;;9.30;99.90;;;;;;7341980;32;20127;-58
2024/01/29 20:39:31;;;;;;;9.10;5.18;;;9.30;99.90;;;;;;7337922;32;20134;-58
2024/01/29 20:43:33;;;;;;;8.85;5.53;;;9.30;99.90;;;;;;7343596;32;20155;-57
2024/01/29 20:47:34;;;;;;;9.82;5.72;;;9.30;99.90;;;;;;7342727;32;20244;-57
2024/01/29 20:51:37;;;;;;;8.30;5.22;;;9.30;99.90;;;;;;7341606;32;20138;-57
2024/01/29 20:55:39;;;;;;;9.60;5.60;;;9.40;99.90;;;;;;7344604;32;20610;-59
2024/01/29 20:59:41;;;;;;;7.53;5.32;;;9.30;99.90;;;;;;7346265;32;20158;-58
2024/01/29 21:03:42;;;;;;;8.57;5.62;;;9.30;99.90;;;;;;7344668;32;20198;-58
2024/01/29 21:07:44;;;;;;;10.25;5.32;;;9.40;99.90;;;;;;7338744;32;20210;-56
2024/01/29 21:11:46;;;;;;;9.55;5.28;;;9.40;99.90;;;;;;7339003;32;20108;-56